createdAt,value
2022-10-31T00:00:51.502Z,60.67
2022-10-31T00:03:20.179Z,171.57
2022-10-31T00:05:49.551Z,266.70
2022-10-31T00:08:18.730Z,109.73
2022-10-31T00:10:47.730Z,68.73
2022-10-31T00:13:17.091Z,204.83
2022-10-31T00:15:46.610Z,63.87
2022-10-31T00:18:14.833Z,129.37
2022-10-31T00:20:43.022Z,241.60
2022-10-31T00:23:12.652Z,61.77
2022-10-31T00:25:41.946Z,271.10
2022-10-31T00:28:12.752Z,248.97
2022-10-31T00:30:40.842Z,160.10
2022-10-31T00:33:10.294Z,66.90
2022-10-31T00:35:38.378Z,21.20
2022-10-31T00:38:06.478Z,121.73
2022-10-31T00:40:34.561Z,156.33
2022-10-31T00:43:03.192Z,177.50
2022-10-31T00:45:31.548Z,83.27
2022-10-31T00:47:59.854Z,51.70
2022-10-31T00:50:29.497Z,189.73
2022-10-31T00:52:57.935Z,202.27
2022-10-31T00:55:25.970Z,76.60
2022-10-31T00:57:54.082Z,119.80
2022-10-31T01:00:22.367Z,145.40
2022-10-31T01:02:50.658Z,292.30
2022-10-31T01:05:19.100Z,73.77
2022-10-31T01:07:48.618Z,180.53
2022-10-31T01:10:17.048Z,83.30
2022-10-31T01:12:46.864Z,205.50
2022-10-31T01:15:17.685Z,156.57
2022-10-31T01:17:45.857Z,148.37
2022-10-31T01:20:15.916Z,271.03
2022-10-31T01:22:44.196Z,135.87
2022-10-31T01:25:13.872Z,112.27
2022-10-31T01:27:41.942Z,135.83
2022-10-31T01:30:10.860Z,358.00
2022-10-31T01:32:39.061Z,139.63
2022-10-31T01:35:07.482Z,244.67
2022-10-31T01:37:35.565Z,213.50
2022-10-31T01:40:03.691Z,181.07
2022-10-31T01:42:33.189Z,85.47
2022-10-31T01:45:03.796Z,71.37
2022-10-31T01:47:38.122Z,193.53
2022-10-31T01:50:13.229Z,451.00
2022-10-31T01:52:45.088Z,347.00
2022-10-31T01:55:17.822Z,291.73
2022-10-31T01:57:50.314Z,162.77
2022-10-31T02:00:19.085Z,107.47
2022-10-31T02:02:48.088Z,360.70
2022-10-31T02:05:19.301Z,143.37
2022-10-31T02:07:54.165Z,79.47
2022-10-31T02:10:24.654Z,73.63
2022-10-31T02:12:57.384Z,172.60
2022-10-31T02:15:25.771Z,138.87
2022-10-31T02:17:54.285Z,325.77
2022-10-31T02:20:25.795Z,128.17
2022-10-31T02:23:22.511Z,75.93
2022-10-31T02:26:18.278Z,167.93
2022-10-31T02:29:05.610Z,115.73
2022-10-31T02:31:44.203Z,165.83
2022-10-31T02:34:19.818Z,257.70
2022-10-31T02:36:54.783Z,147.20
2022-10-31T02:39:27.675Z,91.07
2022-10-31T02:42:06.171Z,299.80
2022-10-31T02:44:40.083Z,315.80
2022-10-31T02:47:14.325Z,214.20
2022-10-31T02:49:47.914Z,221.97
2022-10-31T02:52:19.288Z,217.33
2022-10-31T02:54:48.879Z,206.77
2022-10-31T02:57:19.300Z,225.03
2022-10-31T02:59:50.526Z,179.83
2022-10-31T03:02:48.347Z,246.80
2022-10-31T03:05:48.121Z,46.27
2022-10-31T03:08:24.472Z,77.43
2022-10-31T03:10:57.212Z,226.73
2022-10-31T03:13:35.153Z,248.53
2022-10-31T03:16:11.014Z,90.43
2022-10-31T03:18:44.480Z,233.27
2022-10-31T03:21:16.984Z,21.33
2022-10-31T03:23:48.279Z,88.10
2022-10-31T03:26:18.221Z,69.20
2022-10-31T03:28:49.529Z,95.50
2022-10-31T03:31:25.435Z,117.43
2022-10-31T03:33:56.378Z,128.13
2022-10-31T03:36:25.487Z,99.80
2022-10-31T03:38:54.469Z,299.97
2022-10-31T03:41:26.001Z,117.00
2022-10-31T03:43:59.499Z,176.10
2022-10-31T03:46:27.853Z,115.37
2022-10-31T03:48:57.974Z,92.53
2022-10-31T03:51:31.909Z,63.03
2022-10-31T03:54:06.352Z,159.17
2022-10-31T03:56:39.779Z,155.60
2022-10-31T03:59:11.766Z,263.70
2022-10-31T04:01:44.050Z,90.73
2022-10-31T04:04:13.825Z,103.57
2022-10-31T04:06:44.251Z,124.87
2022-10-31T04:09:13.157Z,128.43
2022-10-31T04:11:47.815Z,91.03
2022-10-31T04:14:15.904Z,202.33
2022-10-31T04:16:45.822Z,365.13
2022-10-31T04:19:16.542Z,157.70
2022-10-31T04:21:45.352Z,120.33
2022-10-31T04:24:13.453Z,240.73
2022-10-31T04:26:41.536Z,86.73
2022-10-31T04:29:09.597Z,249.23
2022-10-31T04:31:37.697Z,120.50
2022-10-31T04:34:05.741Z,36.03
2022-10-31T04:36:35.338Z,32.00
2022-10-31T04:39:03.422Z,14.83
2022-10-31T04:41:32.747Z,89.23
2022-10-31T04:44:00.837Z,18.77
2022-10-31T04:46:28.930Z,249.13
2022-10-31T04:48:57.383Z,181.80
2022-10-31T04:51:25.565Z,34.87
2022-10-31T04:53:55.046Z,102.83
2022-10-31T04:56:23.137Z,171.00
2022-10-31T04:58:51.209Z,41.57
2022-10-31T05:01:19.437Z,22.53
2022-10-31T05:03:47.609Z,49.97
2022-10-31T05:06:17.515Z,75.30
2022-10-31T05:08:45.586Z,128.47
2022-10-31T05:11:15.201Z,81.83
2022-10-31T05:13:43.261Z,116.03
2022-10-31T05:16:11.368Z,63.70
2022-10-31T05:18:39.433Z,86.97
2022-10-31T05:21:07.534Z,154.60
2022-10-31T05:23:35.622Z,61.10
2022-10-31T05:26:03.789Z,10.97
2022-10-31T05:28:33.286Z,56.80
2022-10-31T05:31:01.343Z,103.50
2022-10-31T05:33:29.411Z,189.60
2022-10-31T05:35:57.468Z,62.10
2022-10-31T05:38:25.602Z,57.90
2022-10-31T05:40:58.586Z,39.63
2022-10-31T05:43:26.679Z,100.87
2022-10-31T05:45:56.809Z,20.73
2022-10-31T05:48:24.984Z,14.13
2022-10-31T05:50:53.181Z,32.83
2022-10-31T05:53:21.312Z,15.60
2022-10-31T05:55:49.543Z,321.87
2022-10-31T05:58:17.658Z,112.73
2022-10-31T06:00:45.698Z,119.20
2022-10-31T06:03:15.176Z,30.30
2022-10-31T06:05:43.282Z,43.87
2022-10-31T06:08:11.373Z,97.07
2022-10-31T06:10:39.422Z,131.33
2022-10-31T06:13:07.667Z,65.87
2022-10-31T06:15:35.734Z,145.20
2022-10-31T06:18:05.881Z,30.60
2022-10-31T06:20:35.990Z,108.17
2022-10-31T06:23:05.214Z,60.47
2022-10-31T06:25:33.888Z,78.33
2022-10-31T06:28:01.999Z,62.07
2022-10-31T06:30:30.475Z,22.20
2022-10-31T06:33:04.656Z,119.30
2022-10-31T06:35:33.128Z,160.50
2022-10-31T06:38:02.875Z,138.33
2022-10-31T06:40:31.229Z,62.93
2022-10-31T06:43:00.777Z,190.50
2022-10-31T06:45:29.503Z,32.07
2022-10-31T06:50:46.993Z,99.57
2022-10-31T06:53:16.814Z,93.27
2022-10-31T06:55:44.952Z,167.70
2022-10-31T06:58:13.711Z,185.73
2022-10-31T07:00:41.941Z,284.27
2022-10-31T07:03:13.061Z,140.83
2022-10-31T07:05:41.938Z,173.97
2022-10-31T07:08:12.429Z,242.37
2022-10-31T07:10:43.679Z,133.47
2022-10-31T07:13:14.280Z,320.47
2022-10-31T07:15:43.997Z,129.27
2022-10-31T07:18:13.612Z,554.53
2022-10-31T07:20:41.862Z,292.77
2022-10-31T07:23:11.686Z,65.23
2022-10-31T07:25:41.538Z,63.70
2022-10-31T07:28:10.478Z,276.80
2022-10-31T07:30:38.723Z,415.70
2022-10-31T07:33:07.896Z,142.93
2022-10-31T07:35:36.448Z,275.37
2022-10-31T07:38:11.845Z,217.20
2022-10-31T07:40:42.110Z,223.00
2022-10-31T07:43:14.030Z,316.40
2022-10-31T07:45:43.133Z,131.57
2022-10-31T07:48:11.284Z,247.90
2022-10-31T07:50:40.236Z,192.23
2022-10-31T07:53:10.676Z,278.37
2022-10-31T07:55:39.321Z,204.77
2022-10-31T07:58:10.447Z,366.07
2022-10-31T08:00:39.904Z,275.50
2022-10-31T08:03:09.928Z,303.97
2022-10-31T08:05:38.517Z,340.47
2022-10-31T08:08:07.649Z,384.97
2022-10-31T08:10:37.118Z,502.60
2022-10-31T08:13:09.642Z,259.43
2022-10-31T08:15:40.441Z,273.17
2022-10-31T08:18:09.247Z,267.63
2022-10-31T08:20:37.407Z,197.60
2022-10-31T08:23:07.019Z,194.77
2022-10-31T08:25:38.658Z,193.40
2022-10-31T08:28:10.483Z,152.80
2022-10-31T08:30:40.122Z,141.50
2022-10-31T08:33:11.327Z,170.13
2022-10-31T08:35:39.998Z,83.83
2022-10-31T08:38:08.763Z,523.10
2022-10-31T08:40:37.988Z,78.60
2022-10-31T08:43:11.020Z,272.07
2022-10-31T08:45:39.246Z,272.87
2022-10-31T08:48:12.299Z,118.13
2022-10-31T08:50:40.762Z,316.63
2022-10-31T08:53:13.575Z,189.57
2022-10-31T08:55:43.930Z,444.53
2022-10-31T08:58:16.763Z,135.80
2022-10-31T09:00:45.692Z,245.03
2022-10-31T09:03:15.480Z,427.43
2022-10-31T09:05:43.808Z,412.00
2022-10-31T09:08:16.420Z,273.33
2022-10-31T09:10:45.505Z,324.87
2022-10-31T09:13:17.033Z,297.63
2022-10-31T09:15:47.818Z,236.77
2022-10-31T09:18:18.545Z,279.50
2022-10-31T09:20:48.022Z,344.87
2022-10-31T09:23:17.683Z,453.70
2022-10-31T09:25:50.174Z,217.87
2022-10-31T09:28:21.573Z,379.50
2022-10-31T09:30:50.987Z,663.97
2022-10-31T09:33:19.412Z,473.53
2022-10-31T09:35:47.497Z,332.73
2022-10-31T09:38:17.068Z,419.33
2022-10-31T09:40:47.044Z,309.10
2022-10-31T09:43:21.291Z,210.43
2022-10-31T09:45:58.247Z,524.20
2022-10-31T09:48:56.016Z,317.63
2022-10-31T09:51:27.897Z,434.77
2022-10-31T09:54:01.716Z,290.60
2022-10-31T09:56:30.902Z,507.30
2022-10-31T09:59:02.224Z,532.47
2022-10-31T10:01:42.006Z,472.07
2022-10-31T10:04:25.658Z,278.27
2022-10-31T10:06:54.649Z,393.33
2022-10-31T10:09:27.284Z,395.57
2022-10-31T10:12:07.102Z,297.00
2022-10-31T10:14:59.709Z,371.10
2022-10-31T10:17:41.926Z,342.50
2022-10-31T10:20:31.123Z,486.70
2022-10-31T10:23:35.134Z,305.87
2022-10-31T10:26:12.238Z,454.17
2022-10-31T10:28:44.001Z,481.13
2022-10-31T10:31:16.982Z,496.73
2022-10-31T10:33:49.838Z,577.10
2022-10-31T10:36:22.898Z,421.07
2022-10-31T10:38:56.240Z,349.87
2022-10-31T10:41:29.318Z,420.75
2022-10-31T10:43:58.981Z,549.17
2022-10-31T10:46:58.091Z,520.28
2022-10-31T10:49:34.912Z,459.80
2022-10-31T10:55:05.377Z,551.95
2022-10-31T10:57:51.165Z,361.75
2022-10-31T11:00:22.310Z,555.35
2022-10-31T11:02:52.692Z,402.83
2022-10-31T11:05:32.400Z,427.48
2022-10-31T11:08:00.479Z,516.88
2022-10-31T11:10:28.680Z,570.53
2022-10-31T11:13:04.505Z,490.63
2022-10-31T11:15:37.288Z,481.33
2022-10-31T11:18:07.364Z,537.55
2022-10-31T11:20:37.618Z,603.30
2022-10-31T11:23:19.988Z,707.22
2022-10-31T11:25:53.730Z,520.63
2022-10-31T11:28:21.926Z,399.60
2022-10-31T11:30:52.381Z,670.72
2022-10-31T11:33:33.045Z,585.33
2022-10-31T11:36:03.143Z,634.13
2022-10-31T11:38:37.166Z,469.65
2022-10-31T11:41:13.384Z,527.50
2022-10-31T11:43:49.846Z,627.35
2022-10-31T11:46:23.266Z,458.63
2022-10-31T11:48:55.473Z,514.03
2022-10-31T11:51:25.517Z,582.08
2022-10-31T11:53:58.217Z,552.92
2022-10-31T11:56:39.354Z,787.40
2022-10-31T11:59:16.990Z,651.63
2022-10-31T12:01:50.436Z,671.40
2022-10-31T12:04:20.428Z,693.40
2022-10-31T12:06:51.063Z,701.53
2022-10-31T12:09:23.180Z,675.65
2022-10-31T12:12:14.510Z,696.45
2022-10-31T12:14:54.361Z,675.50
2022-10-31T12:17:25.773Z,766.08
2022-10-31T12:20:05.581Z,665.75
2022-10-31T12:22:43.885Z,611.03
2022-10-31T12:25:37.558Z,786.97
2022-10-31T12:28:41.616Z,637.97
2022-10-31T12:31:26.789Z,520.72
2022-10-31T12:34:03.402Z,666.22
2022-10-31T12:36:50.647Z,841.28
2022-10-31T12:39:38.553Z,735.33
2022-10-31T12:42:29.889Z,639.08
2022-10-31T12:45:20.654Z,780.25
2022-10-31T12:48:21.380Z,680.20
2022-10-31T12:51:05.848Z,750.72
2022-10-31T12:53:46.718Z,639.80
2022-10-31T12:56:27.230Z,583.30
2022-10-31T12:59:02.660Z,746.08
2022-10-31T13:01:36.325Z,753.00
2022-10-31T13:04:12.222Z,644.97
2022-10-31T13:06:44.949Z,811.83
2022-10-31T13:09:20.305Z,628.90
2022-10-31T13:11:53.271Z,726.08
2022-10-31T13:14:28.719Z,549.28
2022-10-31T13:16:58.293Z,777.17
2022-10-31T13:19:31.289Z,630.95
2022-10-31T13:22:04.933Z,737.25
2022-10-31T13:24:38.736Z,700.33
2022-10-31T13:27:19.399Z,846.45
2022-10-31T13:29:56.577Z,786.92
2022-10-31T13:32:24.823Z,611.70
2022-10-31T13:34:57.106Z,826.15
2022-10-31T13:37:40.269Z,529.20
2022-10-31T13:40:21.196Z,706.47
2022-10-31T13:42:57.719Z,660.65
2022-10-31T13:45:27.535Z,814.03
2022-10-31T13:48:01.101Z,814.08
2022-10-31T13:50:31.252Z,733.53
2022-10-31T13:53:20.732Z,823.90
2022-10-31T13:55:52.341Z,761.13
2022-10-31T13:58:26.970Z,747.58
2022-10-31T14:01:17.103Z,766.80
2022-10-31T14:04:12.237Z,520.70
2022-10-31T14:06:41.041Z,698.75
2022-10-31T14:09:24.218Z,882.00
2022-10-31T14:11:54.457Z,873.72
2022-10-31T14:14:24.029Z,767.63
2022-10-31T14:16:59.072Z,719.63
2022-10-31T14:19:28.092Z,733.42
2022-10-31T14:21:56.501Z,625.95
2022-10-31T14:24:39.061Z,664.78
2022-10-31T14:27:47.580Z,728.30
2022-10-31T14:30:19.908Z,713.33
2022-10-31T14:32:54.042Z,717.38
2022-10-31T14:35:26.570Z,580.08
2022-10-31T14:38:16.734Z,580.97
2022-10-31T14:40:59.089Z,678.60
2022-10-31T14:43:47.495Z,800.13
2022-10-31T14:46:25.608Z,529.53
2022-10-31T14:49:12.557Z,672.67
2022-10-31T14:51:45.068Z,887.35
2022-10-31T14:54:16.590Z,681.17
2022-10-31T14:56:50.411Z,774.47
2022-10-31T14:59:24.528Z,698.00
2022-10-31T15:01:59.667Z,772.67
2022-10-31T15:04:29.810Z,804.35
2022-10-31T15:07:06.466Z,741.72
2022-10-31T15:09:36.366Z,825.25
2022-10-31T15:12:24.920Z,687.55
2022-10-31T15:14:54.967Z,770.75
2022-10-31T15:17:24.258Z,558.80
2022-10-31T15:19:53.417Z,545.50
2022-10-31T15:22:24.767Z,825.13
2022-10-31T15:24:57.238Z,877.15
2022-10-31T15:27:26.439Z,813.90
2022-10-31T15:29:57.437Z,679.72
2022-10-31T15:32:27.029Z,691.22
2022-10-31T15:34:56.651Z,849.63
2022-10-31T15:37:26.387Z,692.72
2022-10-31T15:39:54.922Z,382.48
2022-10-31T15:42:26.770Z,837.58
2022-10-31T15:45:02.472Z,370.17
2022-10-31T15:47:32.937Z,819.67
2022-10-31T15:50:02.636Z,571.10
2022-10-31T15:52:34.580Z,466.58
2022-10-31T15:55:05.278Z,932.90
2022-10-31T15:57:34.793Z,509.02
2022-10-31T16:00:04.666Z,663.47
2022-10-31T16:02:32.985Z,538.92
2022-10-31T16:05:03.358Z,585.30
2022-10-31T16:07:32.434Z,552.53
2022-10-31T16:10:02.308Z,400.77
2022-10-31T16:12:36.827Z,782.28
2022-10-31T16:15:15.242Z,586.90
2022-10-31T16:17:45.384Z,217.02
2022-10-31T16:20:22.203Z,478.75
2022-10-31T16:22:52.986Z,563.42
2022-10-31T16:25:30.014Z,532.15
2022-10-31T16:28:07.152Z,542.22
2022-10-31T16:30:46.793Z,473.83
2022-10-31T16:33:28.930Z,337.98
2022-10-31T16:36:09.495Z,462.80
2022-10-31T16:38:44.168Z,437.50
2022-10-31T16:41:12.225Z,346.30
2022-10-31T16:43:40.470Z,445.17
2022-10-31T16:46:16.895Z,482.90
2022-10-31T16:48:45.043Z,383.00
2022-10-31T16:51:13.161Z,634.90
2022-10-31T16:53:46.443Z,486.88
2022-10-31T16:56:19.357Z,397.90
2022-10-31T16:58:47.551Z,692.15
2022-10-31T17:01:17.177Z,432.85
2022-10-31T17:03:45.344Z,576.97
2022-10-31T17:06:14.228Z,680.20
2022-10-31T17:08:42.922Z,602.60
2022-10-31T17:11:18.907Z,650.92
2022-10-31T17:13:47.087Z,608.70
2022-10-31T17:16:16.587Z,723.70
2022-10-31T17:18:46.197Z,464.02
2022-10-31T17:21:19.695Z,715.05
2022-10-31T17:23:47.841Z,615.05
2022-10-31T17:26:15.967Z,400.27
2022-10-31T17:28:44.111Z,242.43
2022-10-31T17:31:23.705Z,539.37
2022-10-31T17:33:51.856Z,498.93
2022-10-31T17:36:19.902Z,346.70
2022-10-31T17:38:47.995Z,378.07
2022-10-31T17:41:16.082Z,476.63
2022-10-31T17:43:44.441Z,503.77
2022-10-31T17:46:12.486Z,389.55
2022-10-31T17:48:41.939Z,433.37
2022-10-31T17:51:10.015Z,426.83
2022-10-31T17:53:38.223Z,345.00
2022-10-31T17:56:08.210Z,277.53
2022-10-31T17:58:37.106Z,246.70
2022-10-31T18:01:09.749Z,322.77
2022-10-31T18:03:38.037Z,172.77
2022-10-31T18:06:08.531Z,328.73
2022-10-31T18:08:38.508Z,117.03
2022-10-31T18:11:11.818Z,359.50
2022-10-31T18:13:40.526Z,472.10
2022-10-31T18:16:09.927Z,263.67
2022-10-31T18:18:38.062Z,264.37
2022-10-31T18:21:07.894Z,283.47
2022-10-31T18:23:35.985Z,261.60
2022-10-31T18:26:04.366Z,423.73
2022-10-31T18:28:32.422Z,474.60
2022-10-31T18:31:00.997Z,290.67
2022-10-31T18:33:29.260Z,260.10
2022-10-31T18:35:57.654Z,185.93
2022-10-31T18:38:28.022Z,363.87
2022-10-31T18:40:56.095Z,185.53
2022-10-31T18:43:24.211Z,285.23
2022-10-31T18:45:55.216Z,206.13
2022-10-31T18:48:28.326Z,407.57
2022-10-31T18:50:58.076Z,302.57
2022-10-31T18:53:27.812Z,335.27
2022-10-31T18:55:55.945Z,217.53
2022-10-31T18:58:24.015Z,218.70
2022-10-31T19:00:52.189Z,275.40
2022-10-31T19:03:25.662Z,220.03
2022-10-31T19:05:57.018Z,265.73
2022-10-31T19:08:25.529Z,216.60
2022-10-31T19:10:55.775Z,332.73
2022-10-31T19:13:23.931Z,338.33
2022-10-31T19:15:52.307Z,164.60
2022-10-31T19:18:20.639Z,196.00
2022-10-31T19:20:48.730Z,323.20
2022-10-31T19:23:17.481Z,329.53
2022-10-31T19:25:45.617Z,267.73
2022-10-31T19:28:15.059Z,296.93
2022-10-31T19:30:43.238Z,229.10
2022-10-31T19:33:11.333Z,207.03
2022-10-31T19:35:39.420Z,351.23
2022-10-31T19:38:07.493Z,351.53
2022-10-31T19:40:37.078Z,251.43
2022-10-31T19:43:05.259Z,256.83
2022-10-31T19:45:34.783Z,265.70
2022-10-31T19:48:03.218Z,330.77
2022-10-31T19:50:31.706Z,94.47
2022-10-31T19:53:00.718Z,186.40
2022-10-31T19:55:30.419Z,556.20
2022-10-31T19:58:02.326Z,324.47
2022-10-31T20:00:30.660Z,351.90
2022-10-31T20:03:00.790Z,148.57
2022-10-31T20:05:29.118Z,493.00
2022-10-31T20:07:57.639Z,188.67
2022-10-31T20:10:26.305Z,44.63
2022-10-31T20:12:54.393Z,243.00
2022-10-31T20:15:22.550Z,335.23
2022-10-31T20:17:50.649Z,238.60
2022-10-31T20:20:20.159Z,161.43
2022-10-31T20:22:50.554Z,349.87
2022-10-31T20:25:19.283Z,212.07
2022-10-31T20:27:47.329Z,100.00
2022-10-31T20:30:15.703Z,122.07
2022-10-31T20:32:49.026Z,323.10
2022-10-31T20:35:20.014Z,69.80
2022-10-31T20:37:48.105Z,148.80
2022-10-31T20:40:16.383Z,137.40
2022-10-31T20:42:44.479Z,102.27
2022-10-31T20:45:12.848Z,174.30
2022-10-31T20:47:41.005Z,144.17
2022-10-31T20:50:09.704Z,229.20
2022-10-31T20:52:40.610Z,302.03
2022-10-31T20:55:09.938Z,57.40
2022-10-31T20:57:38.465Z,62.97
2022-10-31T21:00:08.172Z,185.17
2022-10-31T21:02:36.370Z,198.57
2022-10-31T21:05:08.341Z,138.17
2022-10-31T21:07:36.597Z,149.40
2022-10-31T21:10:14.705Z,111.70
2022-10-31T21:12:44.382Z,65.43
2022-10-31T21:15:14.252Z,62.80
2022-10-31T21:17:42.952Z,286.07
2022-10-31T21:20:11.787Z,89.33
2022-10-31T21:22:40.301Z,76.90
2022-10-31T21:25:10.058Z,116.83
2022-10-31T21:27:38.142Z,276.27
2022-10-31T21:30:07.206Z,24.53
2022-10-31T21:32:35.294Z,116.53
2022-10-31T21:35:03.501Z,336.10
2022-10-31T21:37:31.653Z,312.90
2022-10-31T21:39:59.699Z,116.03
2022-10-31T21:42:29.151Z,100.37
2022-10-31T21:44:57.205Z,77.00
2022-10-31T21:47:25.303Z,241.30
2022-10-31T21:49:53.376Z,122.03
2022-10-31T21:52:21.482Z,134.53
2022-10-31T21:54:48.543Z,212.53
2022-10-31T21:57:16.688Z,192.83
2022-10-31T21:59:48.542Z,118.50
2022-10-31T22:02:16.738Z,75.67
2022-10-31T22:04:45.600Z,193.43
2022-10-31T22:07:13.705Z,172.67
2022-10-31T22:09:47.208Z,56.57
2022-10-31T22:12:15.341Z,79.03
2022-10-31T22:14:45.060Z,281.10
2022-10-31T22:17:13.164Z,308.90
2022-10-31T22:19:41.212Z,150.80
2022-10-31T22:22:09.310Z,133.70
2022-10-31T22:24:37.409Z,69.60
2022-10-31T22:27:05.583Z,199.73
2022-10-31T22:29:35.439Z,134.07
2022-10-31T22:32:05.043Z,73.93
2022-10-31T22:34:33.091Z,37.00
2022-10-31T22:37:02.137Z,111.23
2022-10-31T22:39:30.214Z,159.00
2022-10-31T22:41:58.254Z,169.77
2022-10-31T22:44:26.358Z,92.70
2022-10-31T22:46:54.419Z,21.03
2022-10-31T22:49:24.065Z,166.07
2022-10-31T22:51:52.846Z,110.23
2022-10-31T22:54:21.038Z,143.23
2022-10-31T22:56:49.090Z,181.97
2022-10-31T22:59:17.896Z,230.87
2022-10-31T23:01:46.631Z,149.67
2022-10-31T23:04:15.068Z,59.67
2022-10-31T23:06:44.778Z,63.90
2022-10-31T23:09:16.016Z,139.30
2022-10-31T23:11:44.568Z,116.03
2022-10-31T23:14:14.019Z,163.73
2022-10-31T23:16:44.996Z,49.70
2022-10-31T23:19:16.958Z,164.70
2022-10-31T23:21:59.964Z,187.17
2022-10-31T23:24:36.017Z,43.13
2022-10-31T23:27:10.932Z,63.53
2022-10-31T23:29:45.154Z,155.97
2022-10-31T23:32:16.931Z,149.80
2022-10-31T23:34:45.287Z,164.97
2022-10-31T23:37:16.062Z,58.03
2022-10-31T23:39:44.525Z,227.53
2022-10-31T23:42:13.758Z,41.97
2022-10-31T23:44:41.967Z,128.90
2022-10-31T23:47:10.201Z,64.37
2022-10-31T23:49:38.421Z,65.23
2022-10-31T23:52:07.337Z,65.20
2022-10-31T23:54:37.336Z,109.73
2022-10-31T23:57:06.229Z,37.13
2022-10-31T23:59:34.705Z,61.93
